Time;durP1;ratioP1;P1;durP2;ratioP2;P2;SDS_P1;SDS_P2;PMS_P1;PMS_P2;Temp;Humidity;BMP_temperature;BMP_pressure;BME280_temperature;BME280_humidity;BME280_pressure;Samples;Min_cycle;Max_cycle;Signal;HPM_P1;HPM_P2
2023/10/11 00:01:17;;;;;;;6.10;3.30;;;;;;;;;;6259412;27;20056;-62
2023/10/11 00:04:26;;;;;;;6.07;3.33;;;;;;;;;;6259926;27;20041;-63
2023/10/11 00:07:32;;;;;;;6.07;2.33;;;;;;;;;;6299334;27;20037;-63
2023/10/11 00:10:43;;;;;;;4.93;2.95;;;;;;;;;;6258680;27;20594;-62
2023/10/11 00:13:46;;;;;;;6.22;2.75;;;;;;;;;;6271375;27;20056;-62
2023/10/11 00:16:53;;;;;;;5.70;3.85;;;;;;;;;;6259333;28;20447;-62
2023/10/11 00:19:55;;;;;;;5.55;2.85;;;;;;;;;;6257590;27;20129;-63
2023/10/11 00:22:59;;;;;;;5.68;3.47;;;;;;;;;;6254444;27;20044;-62
2023/10/11 00:26:01;;;;;;;5.80;2.22;;;;;;;;;;6260015;27;20355;-62
2023/10/11 00:29:04;;;;;;;4.07;2.85;;;;;;;;;;6253448;27;20048;-62
2023/10/11 00:32:08;;;;;;;7.15;4.05;;;;;;;;;;6247032;27;20447;-63
2023/10/11 00:35:18;;;;;;;5.15;2.75;;;;;;;;;;6245135;27;20148;-62
2023/10/11 00:38:26;;;;;;;4.82;3.20;;;;;;;;;;6299277;27;20048;-62
2023/10/11 00:41:31;;;;;;;7.20;2.92;;;;;;;;;;6316832;27;20049;-63
2023/10/11 00:44:33;;;;;;;6.88;3.72;;;;;;;;;;6257220;27;20105;-62
2023/10/11 00:47:40;;;;;;;4.18;2.97;;;;;;;;;;6277477;27;20053;-62
2023/10/11 00:50:43;;;;;;;6.85;2.97;;;;;;;;;;6294610;27;20049;-62
2023/10/11 00:53:47;;;;;;;6.53;3.08;;;;;;;;;;6259273;27;20049;-62
2023/10/11 00:56:50;;;;;;;7.30;3.92;;;;;;;;;;6294692;27;20442;-62
2023/10/11 00:59:52;;;;;;;5.82;3.55;;;;;;;;;;6266572;27;20800;-63
2023/10/11 01:02:54;;;;;;;5.75;3.38;;;;;;;;;;6259191;27;20056;-62
2023/10/11 01:05:59;;;;;;;6.57;4.40;;;;;;;;;;6278470;27;20137;-62
2023/10/11 01:09:26;;;;;;;6.03;3.58;;;;;;;;;;6286213;27;20073;-62
2023/10/11 01:12:28;;;;;;;6.38;4.50;;;;;;;;;;6257143;27;20128;-63
2023/10/11 01:15:30;;;;;;;5.85;3.83;;;;;;;;;;6299708;27;20069;-63
2023/10/11 01:18:33;;;;;;;8.25;3.20;;;;;;;;;;6308628;27;20842;-63
2023/10/11 01:21:35;;;;;;;6.88;3.67;;;;;;;;;;6268891;27;20523;-63
2023/10/11 01:24:41;;;;;;;4.10;2.65;;;;;;;;;;6269207;27;20049;-63
2023/10/11 01:27:44;;;;;;;7.38;4.88;;;;;;;;;;6242465;27;20303;-63
2023/10/11 01:30:47;;;;;;;5.10;3.33;;;;;;;;;;6258388;27;20511;-63
2023/10/11 01:33:49;;;;;;;5.65;3.22;;;;;;;;;;6273238;27;20053;-63
2023/10/11 01:36:52;;;;;;;6.78;3.42;;;;;;;;;;6263846;27;20109;-62
2023/10/11 01:39:54;;;;;;;5.28;3.63;;;;;;;;;;6249451;27;20523;-63
2023/10/11 01:42:56;;;;;;;7.35;3.78;;;;;;;;;;6294897;27;20191;-62
2023/10/11 01:45:58;;;;;;;6.75;3.65;;;;;;;;;;6242999;27;20048;-62
2023/10/11 01:49:01;;;;;;;8.40;3.83;;;;;;;;;;6306578;27;20048;-62
2023/10/11 01:52:06;;;;;;;5.68;3.67;;;;;;;;;;6267504;27;20061;-63
2023/10/11 01:55:15;;;;;;;6.75;3.47;;;;;;;;;;6244728;27;20137;-62
2023/10/11 01:58:17;;;;;;;5.90;3.75;;;;;;;;;;6253984;28;20048;-63
2023/10/11 02:01:26;;;;;;;6.13;3.22;;;;;;;;;;6269423;27;20045;-62
2023/10/11 02:04:30;;;;;;;5.78;4.40;;;;;;;;;;6244673;28;20701;-62
2023/10/11 02:07:32;;;;;;;7.15;4.15;;;;;;;;;;6259426;27;20045;-62
2023/10/11 02:10:36;;;;;;;6.13;3.80;;;;;;;;;;6285129;27;20552;-63
2023/10/11 02:13:39;;;;;;;6.13;3.25;;;;;;;;;;6293824;27;20078;-62
2023/10/11 02:16:41;;;;;;;5.53;2.92;;;;;;;;;;6244420;27;20060;-62
2023/10/11 02:19:44;;;;;;;4.55;3.65;;;;;;;;;;6289011;27;20600;-63
2023/10/11 02:22:55;;;;;;;5.85;3.03;;;;;;;;;;6259978;27;20158;-62
2023/10/11 02:25:57;;;;;;;5.90;2.97;;;;;;;;;;6268749;27;20037;-63
2023/10/11 02:29:10;;;;;;;6.50;2.80;;;;;;;;;;6257810;27;20534;-63
2023/10/11 02:32:14;;;;;;;4.43;3.22;;;;;;;;;;6308512;27;20046;-63
2023/10/11 02:35:18;;;;;;;7.07;2.33;;;;;;;;;;6263394;27;20088;-62
2023/10/11 02:38:23;;;;;;;6.32;2.42;;;;;;;;;;6273718;27;20076;-63
2023/10/11 02:41:25;;;;;;;6.03;2.97;;;;;;;;;;6320317;27;20038;-63
2023/10/11 02:44:27;;;;;;;9.93;2.60;;;;;;;;;;6251509;27;20100;-63
2023/10/11 02:47:29;;;;;;;6.85;2.30;;;;;;;;;;6260508;27;20045;-63
2023/10/11 02:50:36;;;;;;;8.57;2.70;;;;;;;;;;6254388;27;20053;-63
2023/10/11 02:53:38;;;;;;;7.85;2.97;;;;;;;;;;6252401;28;20526;-62
2023/10/11 02:56:49;;;;;;;4.03;2.53;;;;;;;;;;6296884;27;20522;-63
2023/10/11 02:59:51;;;;;;;4.97;2.33;;;;;;;;;;6278541;27;20076;-62
2023/10/11 03:02:55;;;;;;;8.55;2.92;;;;;;;;;;6259365;27;20053;-62
2023/10/11 03:05:58;;;;;;;4.75;2.67;;;;;;;;;;6256951;27;20049;-63
2023/10/11 03:09:03;;;;;;;4.82;2.50;;;;;;;;;;6247895;28;20771;-63
2023/10/11 03:12:09;;;;;;;6.30;2.67;;;;;;;;;;6266937;27;20048;-63
2023/10/11 03:15:18;;;;;;;5.03;3.60;;;;;;;;;;6260277;27;20439;-62
2023/10/11 03:18:32;;;;;;;5.47;2.03;;;;;;;;;;6305262;27;20045;-63
2023/10/11 03:21:34;;;;;;;4.53;3.05;;;;;;;;;;6256226;27;20424;-63
2023/10/11 03:24:40;;;;;;;7.15;2.55;;;;;;;;;;6260676;27;20101;-63
2023/10/11 03:27:49;;;;;;;9.02;2.38;;;;;;;;;;6259704;27;20060;-62
2023/10/11 03:30:52;;;;;;;7.15;3.55;;;;;;;;;;6309492;27;20046;-63
2023/10/11 03:33:59;;;;;;;4.57;2.42;;;;;;;;;;6296923;27;20049;-63
2023/10/11 03:37:07;;;;;;;6.45;3.63;;;;;;;;;;6256783;27;20049;-63
2023/10/11 03:40:27;;;;;;;8.60;2.83;;;;;;;;;;6259833;27;20045;-62
2023/10/11 03:43:32;;;;;;;6.10;3.30;;;;;;;;;;6255263;27;20040;-62
2023/10/11 03:46:35;;;;;;;5.57;2.40;;;;;;;;;;6259438;27;20577;-63
2023/10/11 03:52:42;;;;;;;5.03;2.72;;;;;;;;;;6259365;27;20707;-63
2023/10/11 03:55:47;;;;;;;5.00;2.83;;;;;;;;;;6260843;27;20139;-63
2023/10/11 03:58:50;;;;;;;8.35;3.00;;;;;;;;;;6260775;27;20041;-62
2023/10/11 04:01:53;;;;;;;4.80;3.10;;;;;;;;;;6254834;27;20135;-63
2023/10/11 04:04:55;;;;;;;5.55;2.90;;;;;;;;;;6260552;27;20052;-62
2023/10/11 04:07:57;;;;;;;10.00;3.75;;;;;;;;;;6265048;27;20049;-62
2023/10/11 04:11:07;;;;;;;10.10;3.72;;;;;;;;;;6258105;27;20082;-62
2023/10/11 04:14:18;;;;;;;3.85;2.65;;;;;;;;;;6264984;27;20546;-63
2023/10/11 04:20:32;;;;;;;7.75;2.60;;;;;;;;;;6280575;27;20071;-63
2023/10/11 04:23:39;;;;;;;6.10;2.75;;;;;;;;;;6251421;27;20063;-72
2023/10/11 04:26:41;;;;;;;7.43;2.50;;;;;;;;;;6263621;27;20547;-74
2023/10/11 04:29:44;;;;;;;6.63;3.22;;;;;;;;;;6252243;28;20076;-66
2023/10/11 04:32:46;;;;;;;6.15;4.15;;;;;;;;;;6263976;27;20876;-65
2023/10/11 04:35:57;;;;;;;8.27;3.05;;;;;;;;;;6259390;27;20041;-63
2023/10/11 04:39:15;;;;;;;6.93;2.72;;;;;;;;;;6265016;27;20045;-63
2023/10/11 04:42:21;;;;;;;5.10;3.25;;;;;;;;;;6245762;27;20049;-63
2023/10/11 04:45:29;;;;;;;5.43;2.67;;;;;;;;;;6252128;27;20087;-65
2023/10/11 04:49:02;;;;;;;4.43;2.60;;;;;;;;;;6251801;27;20512;-74
2023/10/11 04:52:15;;;;;;;4.85;2.75;;;;;;;;;;6241444;27;20064;-74
2023/10/11 04:55:26;;;;;;;5.30;3.92;;;;;;;;;;6249807;27;20029;-70
2023/10/11 04:58:49;;;;;;;7.68;2.50;;;;;;;;;;6263615;27;20641;-70
2023/10/11 05:04:54;;;;;;;4.90;2.35;;;;;;;;;;6257000;27;20530;-71
2023/10/11 05:08:05;;;;;;;4.70;2.92;;;;;;;;;;6306633;27;20048;-70
2023/10/11 05:11:18;;;;;;;7.13;2.78;;;;;;;;;;6275428;27;20246;-70
2023/10/11 05:14:32;;;;;;;6.88;2.70;;;;;;;;;;6313462;27;20132;-70
2023/10/11 05:17:38;;;;;;;5.35;2.42;;;;;;;;;;6256308;27;20068;-70
2023/10/11 05:24:04;;;;;;;9.88;3.13;;;;;;;;;;6287709;27;20038;-70
2023/10/11 05:27:35;;;;;;;9.15;2.80;;;;;;;;;;6276476;27;20034;-70
2023/10/11 05:30:32;;;;;;;5.90;2.28;;;;;;;;;;6253195;27;20484;-66
2023/10/11 05:50:54;;;;;;;4.20;1.92;;;;;;;;;;6228204;27;20072;-69
2023/10/11 05:53:59;;;;;;;3.42;1.75;;;;;;;;;;6254376;27;20120;-70
2023/10/11 05:57:04;;;;;;;3.58;1.58;;;;;;;;;;6255819;27;20131;-67
2023/10/11 06:00:22;;;;;;;5.47;2.13;;;;;;;;;;6291404;27;20650;-72
2023/10/11 06:03:28;;;;;;;4.95;2.90;;;;;;;;;;6264234;27;20728;-72
2023/10/11 06:06:38;;;;;;;7.22;2.42;;;;;;;;;;6254010;27;20538;-72
2023/10/11 06:09:46;;;;;;;5.75;2.15;;;;;;;;;;6328037;27;20072;-73
2023/10/11 06:12:48;;;;;;;5.55;2.65;;;;;;;;;;6269042;27;20099;-75
2023/10/11 06:15:58;;;;;;;4.72;2.35;;;;;;;;;;6248552;28;20443;-65
2023/10/11 06:19:16;;;;;;;4.22;2.05;;;;;;;;;;6295100;27;20054;-72
2023/10/11 06:22:21;;;;;;;4.55;1.77;;;;;;;;;;6258817;27;20147;-72
2023/10/11 06:28:45;;;;;;;4.88;1.83;;;;;;;;;;6265925;27;20077;-72
2023/10/11 06:31:47;;;;;;;5.90;2.50;;;;;;;;;;6275755;27;20156;-72
2023/10/11 06:34:52;;;;;;;4.28;2.38;;;;;;;;;;6266996;27;20213;-73
2023/10/11 06:37:55;;;;;;;5.68;1.83;;;;;;;;;;6249748;27;20224;-73
2023/10/11 06:41:36;;;;;;;12.43;3.08;;;;;;;;;;6257877;27;20045;-72
2023/10/11 06:44:19;;;;;;;6.45;2.00;;;;;;;;;;6313037;27;20049;-72
2023/10/11 06:47:21;;;;;;;6.28;2.63;;;;;;;;;;6258448;27;20145;-72
2023/10/11 06:50:24;;;;;;;6.47;2.47;;;;;;;;;;6286798;27;20037;-72
2023/10/11 06:53:26;;;;;;;6.78;2.22;;;;;;;;;;6257351;27;20174;-72
2023/10/11 06:56:28;;;;;;;5.63;2.45;;;;;;;;;;6262240;27;20045;-72
2023/10/11 06:59:32;;;;;;;5.32;2.28;;;;;;;;;;6251508;27;20048;-72
2023/10/11 07:02:34;;;;;;;9.30;3.28;;;;;;;;;;6292733;27;20046;-73
2023/10/11 07:05:46;;;;;;;6.70;2.25;;;;;;;;;;6255423;27;20037;-72
2023/10/11 07:08:53;;;;;;;7.93;3.10;;;;;;;;;;6243552;27;20052;-72
2023/10/11 07:15:16;;;;;;;5.07;2.88;;;;;;;;;;6264612;27;20608;-72
2023/10/11 07:18:25;;;;;;;4.85;2.65;;;;;;;;;;6223666;27;20830;-73
2023/10/11 07:24:55;;;;;;;7.80;2.33;;;;;;;;;;6246232;27;20041;-72
2023/10/11 07:28:02;;;;;;;7.20;3.75;;;;;;;;;;6256481;27;20060;-72
2023/10/11 07:31:04;;;;;;;9.68;2.58;;;;;;;;;;6268529;27;20080;-72
2023/10/11 07:34:10;;;;;;;4.82;2.55;;;;;;;;;;6258196;27;20045;-72
2023/10/11 07:37:12;;;;;;;6.80;2.58;;;;;;;;;;6285811;27;20061;-72
2023/10/11 07:40:21;;;;;;;4.45;2.25;;;;;;;;;;6258793;27;20049;-72
2023/10/11 07:43:25;;;;;;;7.03;2.47;;;;;;;;;;6269994;27;20040;-72
2023/10/11 07:46:30;;;;;;;4.82;2.63;;;;;;;;;;6260464;27;20641;-72
2023/10/11 07:49:38;;;;;;;;;;;;;;;;;;6253888;27;20046;-73
2023/10/11 07:52:43;;;;;;;6.65;2.53;;;;;;;;;;6311343;27;19920;-73
2023/10/11 07:55:46;;;;;;;8.82;3.10;;;;;;;;;;6285697;27;20037;-72
2023/10/11 07:58:48;;;;;;;4.93;2.88;;;;;;;;;;6277882;27;20041;-72
2023/10/11 08:01:53;;;;;;;7.78;3.15;;;;;;;;;;6256677;28;20048;-72
2023/10/11 08:04:59;;;;;;;6.65;2.53;;;;;;;;;;6271583;27;20135;-72
2023/10/11 08:08:05;;;;;;;7.13;2.30;;;;;;;;;;6329251;27;20061;-73
2023/10/11 08:11:18;;;;;;;6.95;2.90;;;;;;;;;;6265425;27;20042;-72
2023/10/11 08:14:22;;;;;;;8.98;2.75;;;;;;;;;;6246551;27;20454;-72
2023/10/11 08:17:29;;;;;;;9.40;4.43;;;;;;;;;;6257806;27;20045;-72
2023/10/11 08:20:33;;;;;;;8.43;3.25;;;;;;;;;;6247632;27;20033;-72
2023/10/11 08:23:36;;;;;;;4.68;2.63;;;;;;;;;;6268310;27;20045;-72
2023/10/11 08:26:42;;;;;;;6.57;3.08;;;;;;;;;;6286521;27;20048;-72
2023/10/11 08:29:45;;;;;;;4.43;2.53;;;;;;;;;;6251788;27;20133;-72
2023/10/11 08:33:04;;;;;;;10.95;2.97;;;;;;;;;;6246915;27;20049;-72
2023/10/11 08:36:10;;;;;;;5.85;2.72;;;;;;;;;;6293927;27;20117;-72
2023/10/11 08:39:21;;;;;;;7.50;3.58;;;;;;;;;;6258509;28;20064;-72
2023/10/11 08:42:30;;;;;;;5.78;2.55;;;;;;;;;;6259065;27;20045;-72
2023/10/11 08:45:33;;;;;;;5.88;3.20;;;;;;;;;;6259453;27;20116;-72
2023/10/11 08:48:38;;;;;;;8.40;2.55;;;;;;;;;;6258498;27;20049;-73
2023/10/11 08:51:41;;;;;;;4.35;3.20;;;;;;;;;;6249917;27;20041;-72
2023/10/11 08:54:44;;;;;;;4.93;2.95;;;;;;;;;;6250683;27;20546;-73
2023/10/11 08:57:47;;;;;;;6.75;2.05;;;;;;;;;;6236620;27;20057;-73
2023/10/11 09:00:52;;;;;;;10.05;2.97;;;;;;;;;;6265680;27;20056;-73
2023/10/11 09:04:11;;;;;;;7.75;2.85;;;;;;;;;;6243253;27;20111;-72
2023/10/11 09:07:14;;;;;;;4.05;2.75;;;;;;;;;;6259040;27;20056;-72
2023/10/11 09:10:29;;;;;;;7.80;2.28;;;;;;;;;;6314760;27;20042;-73
2023/10/11 09:13:36;;;;;;;9.35;2.53;;;;;;;;;;6270088;27;20068;-73
2023/10/11 09:16:40;;;;;;;5.57;2.70;;;;;;;;;;6274054;27;20045;-72
2023/10/11 09:19:51;;;;;;;4.85;1.88;;;;;;;;;;6337715;27;20617;-73
2023/10/11 09:22:55;;;;;;;5.05;2.75;;;;;;;;;;6315853;27;20075;-73
2023/10/11 09:25:57;;;;;;;6.10;2.72;;;;;;;;;;6294202;27;20042;-73
2023/10/11 09:29:02;;;;;;;4.60;3.00;;;;;;;;;;6259226;27;20055;-73
2023/10/11 09:32:07;;;;;;;4.15;2.58;;;;;;;;;;6286967;27;20129;-73
2023/10/11 09:35:23;;;;;;;6.25;2.38;;;;;;;;;;6262795;27;20041;-73
2023/10/11 09:38:26;;;;;;;5.68;1.98;;;;;;;;;;6259111;27;20166;-73
2023/10/11 09:41:38;;;;;;;6.28;2.05;;;;;;;;;;6256462;27;20556;-72
2023/10/11 09:44:45;;;;;;;3.70;1.60;;;;;;;;;;6267156;27;20072;-73
2023/10/11 09:47:54;;;;;;;5.53;2.70;;;;;;;;;;6250085;28;20448;-72
2023/10/11 09:50:58;;;;;;;5.72;2.85;;;;;;;;;;6245286;27;20053;-73
2023/10/11 09:54:07;;;;;;;6.03;1.80;;;;;;;;;;6253809;27;20127;-73
2023/10/11 09:57:29;;;;;;;7.60;2.53;;;;;;;;;;6305757;27;20570;-73
2023/10/11 10:00:48;;;;;;;4.47;2.42;;;;;;;;;;6258566;27;20124;-73
2023/10/11 10:03:52;;;;;;;5.53;2.00;;;;;;;;;;6230724;27;20652;-73
2023/10/11 10:07:13;;;;;;;3.63;1.42;;;;;;;;;;6281913;27;20530;-72
2023/10/11 10:10:24;;;;;;;3.47;1.83;;;;;;;;;;6243362;28;20057;-73
2023/10/11 10:13:27;;;;;;;4.30;2.03;;;;;;;;;;6236936;27;20064;-72
2023/10/11 10:17:10;;;;;;;4.88;1.92;;;;;;;;;;6275330;27;20057;-72
2023/10/11 10:20:33;;;;;;;4.15;1.90;;;;;;;;;;6249615;27;20044;-72
2023/10/11 10:23:38;;;;;;;4.95;2.45;;;;;;;;;;6263560;27;20106;-72
2023/10/11 10:26:43;;;;;;;6.10;1.65;;;;;;;;;;6298389;27;20083;-73
2023/10/11 10:29:55;;;;;;;4.40;1.75;;;;;;;;;;6303574;27;20049;-72
2023/10/11 10:33:18;;;;;;;3.60;1.35;;;;;;;;;;6253310;28;20045;-72
2023/10/11 10:36:20;;;;;;;4.75;1.42;;;;;;;;;;6241384;27;20044;-73
2023/10/11 10:42:25;;;;;;;2.80;1.20;;;;;;;;;;6257841;27;20060;-72
2023/10/11 10:45:27;;;;;;;3.58;1.95;;;;;;;;;;6255557;27;20046;-73
2023/10/11 10:48:39;;;;;;;3.75;1.85;;;;;;;;;;6330461;27;20054;-72
2023/10/11 10:51:47;;;;;;;3.65;1.20;;;;;;;;;;6270154;28;20037;-72
2023/10/11 10:55:01;;;;;;;5.63;1.75;;;;;;;;;;6325673;27;20035;-72
2023/10/11 10:58:15;;;;;;;3.28;1.17;;;;;;;;;;6281542;27;20057;-72
2023/10/11 11:01:28;;;;;;;3.42;1.17;;;;;;;;;;6263448;27;20052;-72
2023/10/11 11:04:32;;;;;;;4.88;2.28;;;;;;;;;;6253805;27;20049;-73
2023/10/11 11:07:35;;;;;;;4.68;1.70;;;;;;;;;;6279688;27;20425;-73
2023/10/11 11:10:37;;;;;;;3.05;1.60;;;;;;;;;;6266122;27;20053;-72
2023/10/11 11:13:39;;;;;;;4.05;1.23;;;;;;;;;;6252094;27;20049;-72
2023/10/11 11:16:44;;;;;;;2.78;1.15;;;;;;;;;;6257477;27;20053;-72
2023/10/11 11:20:12;;;;;;;;;;;;;;;;;;6271510;27;20045;-72
2023/10/11 11:23:23;;;;;;;3.63;1.10;;;;;;;;;;6305078;27;19929;-72
2023/10/11 11:26:31;;;;;;;2.97;1.30;;;;;;;;;;6248049;27;20040;-73
2023/10/11 11:29:36;;;;;;;3.63;1.48;;;;;;;;;;6262214;27;20057;-73
2023/10/11 11:32:39;;;;;;;4.35;1.20;;;;;;;;;;6262615;27;20566;-73
2023/10/11 11:35:51;;;;;;;2.92;1.00;;;;;;;;;;6273722;27;20041;-72
2023/10/11 11:38:53;;;;;;;3.45;1.25;;;;;;;;;;6244534;28;20532;-73
2023/10/11 11:41:58;;;;;;;3.15;2.22;;;;;;;;;;6262408;27;20439;-74
2023/10/11 11:45:00;;;;;;;4.43;1.20;;;;;;;;;;6234947;27;20037;-73
2023/10/11 11:48:05;;;;;;;4.03;1.27;;;;;;;;;;6347521;27;20053;-73
2023/10/11 11:51:13;;;;;;;2.85;1.08;;;;;;;;;;6251479;27;20124;-73
2023/10/11 11:54:26;;;;;;;2.83;1.15;;;;;;;;;;6262049;27;20052;-71
2023/10/11 11:57:29;;;;;;;3.95;1.13;;;;;;;;;;6257286;27;20037;-73
2023/10/11 12:00:39;;;;;;;3.35;1.08;;;;;;;;;;6263961;27;20034;-73
2023/10/11 12:03:42;;;;;;;3.95;1.60;;;;;;;;;;6236820;27;20049;-73
2023/10/11 12:06:46;;;;;;;4.47;1.15;;;;;;;;;;6273436;27;20070;-73
2023/10/11 12:09:53;;;;;;;2.75;1.27;;;;;;;;;;6263467;27;20037;-73
2023/10/11 12:13:08;;;;;;;3.20;1.30;;;;;;;;;;6282949;27;20089;-72
2023/10/11 12:16:10;;;;;;;7.07;1.63;;;;;;;;;;6262109;27;20052;-73
2023/10/11 12:19:13;;;;;;;2.92;1.10;;;;;;;;;;6271851;27;20052;-70
2023/10/11 12:22:18;;;;;;;3.78;1.35;;;;;;;;;;6259938;27;20079;-71
2023/10/11 12:25:24;;;;;;;2.65;1.00;;;;;;;;;;6252767;27;20551;-64
2023/10/11 12:28:27;;;;;;;4.18;1.17;;;;;;;;;;6264535;27;20060;-66
2023/10/11 12:31:29;;;;;;;4.18;1.00;;;;;;;;;;6258067;27;20040;-66
2023/10/11 12:34:32;;;;;;;3.90;1.00;;;;;;;;;;6294848;27;20051;-66
2023/10/11 12:37:35;;;;;;;3.97;0.93;;;;;;;;;;6305697;27;20043;-67
2023/10/11 12:40:40;;;;;;;4.68;0.90;;;;;;;;;;6261229;27;20085;-66
2023/10/11 12:43:45;;;;;;;4.32;1.00;;;;;;;;;;6256195;27;20041;-66
2023/10/11 12:46:49;;;;;;;4.05;1.40;;;;;;;;;;6301786;27;20046;-66
2023/10/11 12:49:51;;;;;;;5.30;1.02;;;;;;;;;;6303802;27;20053;-66
2023/10/11 12:52:53;;;;;;;5.10;1.20;;;;;;;;;;6266292;27;20054;-66
2023/10/11 12:55:56;;;;;;;2.70;1.08;;;;;;;;;;6268348;27;20033;-66
2023/10/11 12:58:57;;;;;;;5.85;1.33;;;;;;;;;;6283866;27;20060;-67
2023/10/11 13:02:04;;;;;;;2.92;0.98;;;;;;;;;;6272349;27;20045;-66
2023/10/11 13:05:07;;;;;;;6.40;1.27;;;;;;;;;;6277149;27;20056;-67
2023/10/11 13:08:14;;;;;;;6.82;1.70;;;;;;;;;;6263820;27;20507;-67
2023/10/11 13:11:18;;;;;;;6.43;1.70;;;;;;;;;;6281042;27;20060;-66
2023/10/11 13:14:23;;;;;;;3.67;1.85;;;;;;;;;;6300933;27;20079;-66
2023/10/11 13:17:28;;;;;;;4.93;1.33;;;;;;;;;;6288258;27;20046;-67
2023/10/11 13:20:31;;;;;;;6.65;1.45;;;;;;;;;;6256116;27;20048;-66
2023/10/11 13:23:34;;;;;;;2.25;0.80;;;;;;;;;;6263530;27;20045;-66
2023/10/11 13:26:42;;;;;;;5.55;1.13;;;;;;;;;;6292850;27;20525;-67
2023/10/11 13:29:47;;;;;;;5.03;1.40;;;;;;;;;;6257764;27;20080;-75
2023/10/11 13:32:57;;;;;;;3.78;1.08;;;;;;;;;;6257208;27;20049;-75
2023/10/11 13:36:00;;;;;;;3.15;1.00;;;;;;;;;;6250322;27;20049;-75
2023/10/11 13:39:03;;;;;;;6.18;1.20;;;;;;;;;;6229520;28;20049;-76
2023/10/11 13:42:09;;;;;;;2.58;1.05;;;;;;;;;;6251257;27;20048;-76
2023/10/11 13:45:16;;;;;;;2.70;1.00;;;;;;;;;;6254394;27;20063;-77
2023/10/11 13:48:19;;;;;;;3.03;1.10;;;;;;;;;;6277899;27;20061;-76
2023/10/11 13:51:22;;;;;;;2.50;1.30;;;;;;;;;;6270304;27;20059;-75
2023/10/11 13:54:32;;;;;;;4.93;0.90;;;;;;;;;;6275069;27;20043;-76
2023/10/11 13:57:35;;;;;;;5.15;1.52;;;;;;;;;;6265737;27;20581;-77
2023/10/11 14:01:02;;;;;;;6.30;1.15;;;;;;;;;;6255786;27;20135;-70
2023/10/11 14:04:13;;;;;;;5.10;1.65;;;;;;;;;;6300959;27;20155;-65
2023/10/11 14:10:45;;;;;;;6.88;1.20;;;;;;;;;;6275294;27;20064;-68
2023/10/11 14:13:50;;;;;;;3.42;1.10;;;;;;;;;;6258998;27;20045;-66
2023/10/11 14:16:52;;;;;;;5.25;1.08;;;;;;;;;;6255735;27;20040;-67
2023/10/11 14:19:55;;;;;;;3.72;0.80;;;;;;;;;;6294408;27;20546;-66
2023/10/11 14:22:58;;;;;;;5.18;1.65;;;;;;;;;;6269142;27;20057;-67
2023/10/11 14:26:04;;;;;;;7.93;1.30;;;;;;;;;;6290067;27;20109;-67
2023/10/11 14:29:07;;;;;;;4.40;1.30;;;;;;;;;;6252312;27;20044;-66
2023/10/11 14:32:10;;;;;;;5.57;1.30;;;;;;;;;;6290378;27;20062;-67
2023/10/11 14:35:16;;;;;;;4.90;1.33;;;;;;;;;;6281990;27;20194;-67
2023/10/11 14:38:19;;;;;;;6.50;1.20;;;;;;;;;;6297125;27;20049;-71
2023/10/11 14:41:23;;;;;;;15.60;2.00;;;;;;;;;;6271076;27;20038;-70
2023/10/11 14:44:26;;;;;;;6.25;1.83;;;;;;;;;;6298379;27;20055;-64
2023/10/11 14:47:28;;;;;;;9.52;1.90;;;;;;;;;;6299568;27;20073;-63
2023/10/11 14:50:33;;;;;;;4.82;1.95;;;;;;;;;;6262904;27;20040;-64
2023/10/11 14:53:36;;;;;;;4.05;1.20;;;;;;;;;;6273022;27;20455;-63
2023/10/11 14:56:38;;;;;;;3.80;1.23;;;;;;;;;;6284101;27;20144;-63
2023/10/11 14:59:40;;;;;;;6.85;1.42;;;;;;;;;;6275585;27;20053;-63
2023/10/11 15:02:43;;;;;;;8.68;1.50;;;;;;;;;;6253680;27;20044;-63
2023/10/11 15:05:47;;;;;;;4.50;1.70;;;;;;;;;;6252621;27;20551;-63
2023/10/11 15:08:51;;;;;;;5.82;1.85;;;;;;;;;;6277726;27;20527;-64
2023/10/11 15:11:53;;;;;;;7.82;1.50;;;;;;;;;;6257224;27;20056;-61
2023/10/11 15:14:55;;;;;;;9.50;1.95;;;;;;;;;;6246884;27;20061;-67
2023/10/11 15:18:01;;;;;;;28.90;2.25;;;;;;;;;;6249389;27;20060;-63
2023/10/11 15:21:04;;;;;;;10.70;1.38;;;;;;;;;;6248785;27;20190;-62
2023/10/11 15:24:13;;;;;;;4.78;1.60;;;;;;;;;;6248055;27;20038;-63
2023/10/11 15:27:16;;;;;;;6.35;1.52;;;;;;;;;;6247160;27;20056;-63
2023/10/11 15:30:18;;;;;;;4.82;1.92;;;;;;;;;;6257677;28;20061;-62
2023/10/11 15:33:21;;;;;;;9.77;2.83;;;;;;;;;;6243525;27;20183;-65
2023/10/11 15:36:24;;;;;;;7.20;3.03;;;;;;;;;;6254673;27;20056;-62
2023/10/11 15:39:29;;;;;;;16.85;10.95;;;;;;;;;;6246688;27;20045;-65
2023/10/11 15:42:32;;;;;;;33.58;19.95;;;;;;;;;;6276202;27;20053;-65
2023/10/11 15:45:35;;;;;;;46.22;25.00;;;;;;;;;;6277954;27;20531;-62
2023/10/11 15:48:37;;;;;;;18.65;11.40;;;;;;;;;;6249865;27;20049;-65
2023/10/11 15:51:40;;;;;;;12.57;8.52;;;;;;;;;;6257371;27;20529;-65
2023/10/11 15:54:42;;;;;;;7.13;3.58;;;;;;;;;;6256381;27;20048;-65
2023/10/11 15:57:46;;;;;;;10.07;4.55;;;;;;;;;;6245726;27;20048;-65
2023/10/11 16:00:49;;;;;;;4.70;2.72;;;;;;;;;;6260534;27;20057;-65
2023/10/11 16:03:55;;;;;;;4.45;2.13;;;;;;;;;;6267229;27;20531;-65
2023/10/11 16:06:58;;;;;;;7.30;4.43;;;;;;;;;;6286163;27;20037;-65
2023/10/11 16:10:01;;;;;;;15.23;5.60;;;;;;;;;;6285248;27;20756;-65
2023/10/11 16:13:03;;;;;;;14.77;5.07;;;;;;;;;;6255716;27;20454;-65
2023/10/11 16:16:07;;;;;;;8.95;4.22;;;;;;;;;;6254768;28;20520;-75
2023/10/11 16:19:12;;;;;;;12.55;3.53;;;;;;;;;;6250395;28;20152;-75
2023/10/11 16:22:14;;;;;;;18.17;3.38;;;;;;;;;;6253839;27;20041;-75
2023/10/11 16:25:18;;;;;;;11.73;4.60;;;;;;;;;;6252220;27;20189;-75
2023/10/11 16:28:23;;;;;;;17.08;3.95;;;;;;;;;;6274833;27;20041;-74
2023/10/11 16:31:25;;;;;;;;;;;;;;;;;;6291179;27;20542;-76
2023/10/11 16:34:27;;;;;;;7.60;2.65;;;;;;;;;;6230173;27;19925;-75
2023/10/11 16:37:32;;;;;;;9.20;3.60;;;;;;;;;;6240753;27;20324;-75
2023/10/11 16:40:35;;;;;;;11.82;5.40;;;;;;;;;;6254813;27;20063;-73
2023/10/11 16:43:38;;;;;;;12.98;5.57;;;;;;;;;;6278595;27;20053;-74
2023/10/11 16:46:41;;;;;;;16.23;5.72;;;;;;;;;;6253520;27;20101;-75
2023/10/11 16:49:45;;;;;;;9.93;5.07;;;;;;;;;;6256567;27;20041;-75
2023/10/11 16:52:48;;;;;;;12.10;6.40;;;;;;;;;;6263816;27;20545;-75
2023/10/11 16:55:51;;;;;;;9.52;5.38;;;;;;;;;;6259072;27;20052;-75
2023/10/11 16:58:53;;;;;;;14.57;5.88;;;;;;;;;;6254132;27;20052;-74
2023/10/11 17:01:56;;;;;;;12.27;6.55;;;;;;;;;;6258499;27;20041;-75
2023/10/11 17:05:01;;;;;;;10.73;5.80;;;;;;;;;;6268020;27;20041;-74
2023/10/11 17:08:05;;;;;;;9.85;4.82;;;;;;;;;;6287665;27;20593;-71
2023/10/11 17:11:11;;;;;;;7.25;4.07;;;;;;;;;;6257893;27;20043;-71
2023/10/11 17:14:15;;;;;;;7.53;5.20;;;;;;;;;;6268998;27;20052;-72
2023/10/11 17:17:19;;;;;;;6.72;3.85;;;;;;;;;;6265728;27;20046;-71
2023/10/11 17:20:24;;;;;;;6.93;3.60;;;;;;;;;;6259398;27;20051;-70
2023/10/11 17:23:26;;;;;;;6.03;3.35;;;;;;;;;;6318067;27;20049;-70
2023/10/11 17:26:32;;;;;;;11.30;5.80;;;;;;;;;;6266169;27;20040;-66
2023/10/11 17:29:36;;;;;;;10.30;4.00;;;;;;;;;;6255215;27;20135;-74
2023/10/11 17:32:39;;;;;;;11.93;5.72;;;;;;;;;;6253556;28;20052;-72
2023/10/11 17:35:45;;;;;;;11.73;5.97;;;;;;;;;;6233766;27;20583;-72
2023/10/11 17:38:47;;;;;;;7.88;4.45;;;;;;;;;;6279034;27;20051;-73
2023/10/11 17:41:49;;;;;;;12.48;4.60;;;;;;;;;;6280378;27;20780;-72
2023/10/11 17:44:51;;;;;;;11.15;4.70;;;;;;;;;;6282597;27;20572;-75
2023/10/11 17:47:53;;;;;;;12.02;5.50;;;;;;;;;;6249309;28;20080;-74
2023/10/11 17:50:58;;;;;;;12.15;5.07;;;;;;;;;;6281423;27;20072;-72
2023/10/11 17:54:02;;;;;;;8.20;5.00;;;;;;;;;;6250943;27;20097;-73
2023/10/11 17:57:04;;;;;;;18.30;5.30;;;;;;;;;;6266676;27;20041;-72
2023/10/11 18:00:09;;;;;;;7.35;4.90;;;;;;;;;;6255236;27;20044;-73
2023/10/11 18:03:11;;;;;;;9.15;4.63;;;;;;;;;;6258244;28;20530;-74
2023/10/11 18:06:13;;;;;;;7.95;4.78;;;;;;;;;;6284966;27;20046;-73
2023/10/11 18:09:16;;;;;;;7.22;4.32;;;;;;;;;;6300981;27;20056;-73
2023/10/11 18:12:18;;;;;;;11.18;6.78;;;;;;;;;;6256465;27;20048;-73
2023/10/11 18:15:29;;;;;;;10.10;5.20;;;;;;;;;;6260912;27;20119;-73
2023/10/11 18:18:35;;;;;;;10.25;4.22;;;;;;;;;;6269369;27;20047;-72
2023/10/11 18:21:37;;;;;;;7.30;3.47;;;;;;;;;;6263602;27;20056;-64
2023/10/11 18:24:42;;;;;;;7.60;5.13;;;;;;;;;;6240920;27;20106;-65
2023/10/11 18:27:58;;;;;;;6.93;4.00;;;;;;;;;;6293924;27;20193;-64
2023/10/11 18:31:09;;;;;;;7.03;3.80;;;;;;;;;;6290871;27;20285;-64
2023/10/11 18:34:11;;;;;;;5.60;3.25;;;;;;;;;;6255814;27;20076;-64
2023/10/11 18:37:16;;;;;;;7.10;4.93;;;;;;;;;;6267075;27;20150;-65
2023/10/11 18:40:22;;;;;;;6.55;2.92;;;;;;;;;;6247614;27;20048;-64
2023/10/11 18:43:24;;;;;;;9.10;4.50;;;;;;;;;;6256819;27;20057;-65
2023/10/11 18:46:26;;;;;;;7.32;3.97;;;;;;;;;;6252003;27;20128;-65
2023/10/11 18:49:28;;;;;;;5.15;3.03;;;;;;;;;;6295218;27;20143;-65
2023/10/11 18:52:31;;;;;;;8.05;3.03;;;;;;;;;;6289535;27;20626;-65
2023/10/11 18:55:33;;;;;;;8.32;2.88;;;;;;;;;;6316050;27;20084;-65
2023/10/11 18:58:35;;;;;;;8.35;4.18;;;;;;;;;;6285419;27;20538;-65
2023/10/11 19:01:37;;;;;;;6.35;3.33;;;;;;;;;;6253044;27;20045;-65
2023/10/11 19:04:42;;;;;;;5.65;3.00;;;;;;;;;;6257841;27;20618;-64
2023/10/11 19:07:52;;;;;;;9.65;4.03;;;;;;;;;;6283231;27;20048;-65
2023/10/11 19:10:54;;;;;;;5.65;3.42;;;;;;;;;;6281219;27;20045;-65
2023/10/11 19:13:56;;;;;;;5.85;3.47;;;;;;;;;;6251432;27;20056;-65
2023/10/11 19:16:58;;;;;;;5.93;3.10;;;;;;;;;;6264786;27;20069;-65
2023/10/11 19:20:13;;;;;;;7.65;4.57;;;;;;;;;;6279250;27;20566;-65